Time;durP1;ratioP1;P1;durP2;ratioP2;P2;SDS_P1;SDS_P2;PMS_P1;PMS_P2;Temp;Humidity;BMP_temperature;BMP_pressure;BME280_temperature;BME280_humidity;BME280_pressure;Samples;Min_cycle;Max_cycle;Signal;HPM_P1;HPM_P2
2023/10/07 00:02:59;;;;;;;7.93;3.50;;;;;;;10.70;100.00;98384.81;5072044;28;20040;-71
2023/10/07 00:05:31;;;;;;;9.60;4.18;;;;;;;10.56;100.00;98388.16;5088496;28;20404;-72
2023/10/07 00:08:00;;;;;;;9.70;3.67;;;;;;;10.58;100.00;98393.44;5072666;28;20088;-71
2023/10/07 00:10:30;;;;;;;7.53;3.70;;;;;;;10.55;100.00;98390.94;5087905;28;20033;-71
2023/10/07 00:13:00;;;;;;;6.88;3.40;;;;;;;10.48;100.00;98389.47;5072327;28;20025;-72
2023/10/07 00:15:30;;;;;;;5.20;3.30;;;;;;;10.43;100.00;98378.16;5088286;28;20029;-72
2023/10/07 00:18:13;;;;;;;5.60;3.50;;;;;;;10.48;100.00;98378.78;5087945;28;20124;-72
2023/10/07 00:21:02;;;;;;;7.55;3.80;;;;;;;10.50;100.00;98374.22;5071296;28;20029;-71
2023/10/07 00:23:27;;;;;;;7.32;3.90;;;;;;;10.36;100.00;98380.25;5070871;28;20097;-72
2023/10/07 00:25:54;;;;;;;9.90;3.88;;;;;;;10.25;100.00;98366.50;5072340;28;20389;-73
2023/10/07 00:28:31;;;;;;;6.63;3.72;;;;;;;10.17;100.00;98364.19;5071121;28;20035;-72
2023/10/07 00:31:02;;;;;;;6.90;3.40;;;;;;;10.06;100.00;98371.81;5072178;28;20028;-73
2023/10/07 00:33:30;;;;;;;9.20;4.03;;;;;;;10.01;100.00;98368.50;5071366;28;20037;-72
2023/10/07 00:36:04;;;;;;;7.32;4.18;;;;;;;10.01;100.00;98373.84;5071003;28;20029;-72
2023/10/07 00:38:37;;;;;;;14.52;3.85;;;;;;;9.89;100.00;98347.69;5070542;28;20033;-72
2023/10/07 00:41:04;;;;;;;9.88;3.92;;;;;;;10.03;100.00;98366.59;5071763;28;20427;-73
2023/10/07 00:43:33;;;;;;;7.88;4.15;;;;;;;10.09;100.00;98370.81;5070656;28;20059;-72
2023/10/07 00:46:10;;;;;;;9.13;4.07;;;;;;;10.09;100.00;98365.47;5067102;28;20420;-72
2023/10/07 00:48:52;;;;;;;5.60;3.20;;;;;;;10.15;100.00;98355.38;5070656;28;20420;-73
2023/10/07 00:51:24;;;;;;;8.88;3.92;;;;;;;10.15;100.00;98350.00;5087317;28;20039;-72
2023/10/07 00:54:01;;;;;;;9.63;3.90;;;;;;;10.09;100.00;98354.78;5071277;28;20458;-72
2023/10/07 00:56:27;;;;;;;10.57;3.72;;;;;;;10.00;100.00;98355.19;5071835;28;20145;-72
2023/10/07 00:58:54;;;;;;;6.45;4.20;;;;;;;9.89;100.00;98357.50;5070327;28;20479;-73
2023/10/07 01:01:20;;;;;;;7.72;3.40;;;;;;;9.89;100.00;98357.50;5071592;28;20145;-72
2023/10/07 01:03:51;;;;;;;7.13;3.90;;;;;;;9.96;100.00;98342.91;5070320;28;20020;-72
2023/10/07 01:06:27;;;;;;;5.22;3.33;;;;;;;9.96;100.00;98351.81;5070852;28;20089;-72
2023/10/07 01:09:04;;;;;;;8.93;3.85;;;;;;;9.85;100.00;98353.22;5071405;28;20233;-72
2023/10/07 01:11:30;;;;;;;6.55;3.85;;;;;;;9.77;100.00;98340.22;5070314;28;20073;-72
2023/10/07 01:13:56;;;;;;;11.35;3.97;;;;;;;9.78;100.00;98350.00;5071244;28;20155;-72
2023/10/07 01:16:33;;;;;;;7.72;3.45;;;;;;;9.76;100.00;98355.38;5070159;28;20028;-72
2023/10/07 01:21:55;;;;;;;10.43;3.90;;;;;;;9.79;100.00;98357.03;5071358;28;20021;-72
2023/10/07 01:24:44;;;;;;;7.70;3.95;;;;;;;9.70;100.00;98344.13;5069803;28;20028;-72
2023/10/07 01:30:06;;;;;;;;;;;;;;;9.74;100.00;98354.59;5070546;28;20025;-72
2023/10/07 01:32:32;;;;;;;13.02;3.83;;;;;;;9.58;100.00;98340.19;5069946;28;19912;-72
2023/10/07 01:35:11;;;;;;;6.82;4.25;;;;;;;9.54;100.00;98346.59;5069738;28;20111;-72
2023/10/07 01:37:50;;;;;;;13.65;4.40;;;;;;;9.39;100.00;98349.97;5069797;28;20415;-72
2023/10/07 01:40:17;;;;;;;8.65;4.50;;;;;;;9.35;100.00;98352.84;5071060;28;20494;-72
2023/10/07 01:42:47;;;;;;;7.93;4.53;;;;;;;9.17;100.00;98349.16;5069786;28;20085;-72
2023/10/07 01:45:22;;;;;;;8.20;4.38;;;;;;;9.20;100.00;98344.56;5070202;28;20051;-73
2023/10/07 01:47:49;;;;;;;8.68;4.25;;;;;;;9.19;100.00;98340.19;5070708;28;20112;-72
2023/10/07 01:50:18;;;;;;;10.60;4.20;;;;;;;9.20;100.00;98339.22;5069577;28;20495;-71
2023/10/07 01:52:48;;;;;;;9.50;4.10;;;;;;;9.22;100.00;98337.38;5069826;28;20455;-72
2023/10/07 01:55:15;;;;;;;11.70;4.72;;;;;;;9.31;100.00;98332.56;5067307;28;20028;-72
2023/10/07 01:57:41;;;;;;;8.27;4.82;;;;;;;9.32;100.00;98324.47;5086369;28;20024;-72
2023/10/07 02:00:11;;;;;;;9.88;4.50;;;;;;;9.38;100.00;98316.22;5069226;28;20036;-72
2023/10/07 02:02:48;;;;;;;10.23;4.47;;;;;;;9.32;100.00;98315.63;5069573;28;20627;-72
2023/10/07 02:05:15;;;;;;;11.82;4.82;;;;;;;9.21;100.00;98318.75;5069781;28;20568;-73
2023/10/07 02:07:43;;;;;;;9.02;4.50;;;;;;;9.08;100.00;98321.09;5086077;28;20083;-72
2023/10/07 02:10:12;;;;;;;9.05;4.90;;;;;;;9.05;100.00;98321.22;5069189;28;20480;-72
2023/10/07 02:12:39;;;;;;;11.40;5.22;;;;;;;8.91;100.00;98314.75;5070476;28;20476;-72
2023/10/07 02:15:19;;;;;;;10.32;4.72;;;;;;;8.88;100.00;98323.75;5069145;28;20071;-72
2023/10/07 02:17:47;;;;;;;9.23;4.90;;;;;;;8.84;100.00;98324.81;5071014;28;20040;-73
2023/10/07 02:20:25;;;;;;;12.20;5.53;;;;;;;8.85;100.00;98317.69;5069222;28;20077;-72
2023/10/07 02:22:52;;;;;;;16.08;5.80;;;;;;;8.78;100.00;98317.06;5070610;28;20024;-72
2023/10/07 02:25:26;;;;;;;10.65;6.07;;;;;;;8.80;100.00;98312.53;5052571;28;20033;-72
2023/10/07 02:27:55;;;;;;;13.07;6.47;;;;;;;8.80;100.00;98315.19;5069221;28;20085;-72
2023/10/07 02:30:21;;;;;;;15.07;6.22;;;;;;;8.83;100.00;98312.41;5052399;28;20168;-72
2023/10/07 02:32:47;;;;;;;13.55;6.20;;;;;;;8.74;100.00;98312.78;5070353;28;20072;-72
2023/10/07 02:35:19;;;;;;;17.80;7.05;;;;;;;8.91;100.00;98323.63;5071125;28;20028;-72
2023/10/07 02:37:49;;;;;;;20.92;9.55;;;;;;;8.92;100.00;98320.00;5073150;28;20032;-72
2023/10/07 02:40:35;;;;;;;15.70;7.45;;;;;;;9.01;100.00;98314.28;5073024;28;20036;-72
2023/10/07 02:43:07;;;;;;;12.20;5.63;;;;;;;8.96;100.00;98307.41;5074216;28;20090;-72
2023/10/07 02:45:39;;;;;;;9.95;5.00;;;;;;;8.93;100.00;98304.88;5073112;28;20027;-72
2023/10/07 02:48:10;;;;;;;;;;;;;;;8.99;100.00;98316.16;5073563;28;20028;-72
2023/10/07 02:50:39;;;;;;;16.05;5.50;;;;;;;8.99;100.00;98305.47;5056705;28;19930;-72
2023/10/07 02:53:12;;;;;;;8.65;5.40;;;;;;;9.04;100.00;98314.16;5072730;28;20032;-72
2023/10/07 02:55:57;;;;;;;16.27;5.50;;;;;;;9.02;100.00;98310.69;5074025;28;20036;-72
2023/10/07 02:58:48;;;;;;;16.85;6.07;;;;;;;8.95;100.00;98319.03;5072799;28;20480;-71
2023/10/07 03:01:18;;;;;;;16.05;6.05;;;;;;;8.87;100.00;98310.47;5073874;28;20422;-71
2023/10/07 03:03:48;;;;;;;16.27;6.28;;;;;;;8.87;100.00;98316.69;5072824;28;20021;-78
2023/10/07 03:06:17;;;;;;;14.43;7.05;;;;;;;8.82;100.00;98304.47;5073932;28;20024;-78
2023/10/07 03:08:50;;;;;;;29.83;12.38;;;;;;;8.75;100.00;98301.19;5074068;28;20020;-78
2023/10/07 03:11:22;;;;;;;24.60;9.85;;;;;;;8.73;100.00;98303.06;5056641;28;20444;-78
2023/10/07 03:13:56;;;;;;;40.63;11.38;;;;;;;8.65;100.00;98297.19;5072689;28;20024;-78
2023/10/07 03:24:11;;;;;;;19.42;6.78;;;;;;;8.69;100.00;98306.78;5072314;28;20028;-78
2023/10/07 03:26:39;;;;;;;14.43;6.45;;;;;;;8.66;100.00;98310.47;5073686;28;20467;-79
2023/10/07 03:29:05;;;;;;;15.35;6.45;;;;;;;8.64;100.00;98303.47;5072376;28;20016;-79
2023/10/07 03:34:11;;;;;;;12.98;5.22;;;;;;;8.61;100.00;98319.59;5088077;28;20028;-79
2023/10/07 03:41:48;;;;;;;13.05;5.28;;;;;;;8.28;100.00;98305.84;5072052;28;20413;-79
2023/10/07 03:44:32;;;;;;;18.17;5.35;;;;;;;8.24;100.00;98314.00;5071904;28;20028;-78
2023/10/07 03:46:58;;;;;;;13.52;5.85;;;;;;;8.30;100.00;98312.00;5071012;28;20023;-78
2023/10/07 03:49:33;;;;;;;12.32;5.90;;;;;;;8.24;100.00;98316.66;5071789;28;20025;-78
2023/10/07 03:52:08;;;;;;;15.15;6.07;;;;;;;8.14;100.00;98311.69;5056169;28;20435;-78
2023/10/07 03:54:34;;;;;;;13.77;7.05;;;;;;;8.04;100.00;98313.00;5071762;28;20446;-77
2023/10/07 03:57:00;;;;;;;12.55;5.93;;;;;;;8.05;100.00;98309.41;5071692;28;20534;-78
2023/10/07 03:59:32;;;;;;;13.20;5.60;;;;;;;7.92;100.00;98292.16;5054645;28;20131;-79
2023/10/07 04:01:58;;;;;;;14.02;6.78;;;;;;;7.88;100.00;98295.00;5088122;28;20439;-79
2023/10/07 04:04:24;;;;;;;13.57;6.20;;;;;;;7.89;100.00;98302.06;5072702;28;20047;-78
2023/10/07 04:06:50;;;;;;;14.75;5.95;;;;;;;7.91;100.00;98286.88;5071659;28;20392;-77
2023/10/07 04:09:16;;;;;;;15.73;5.90;;;;;;;7.94;100.00;98295.63;5071265;28;20460;-78
2023/10/07 04:11:48;;;;;;;12.95;5.90;;;;;;;7.83;100.00;98276.53;5071396;28;20025;-78
2023/10/07 04:14:27;;;;;;;11.13;5.65;;;;;;;7.83;100.00;98287.19;5071419;28;20028;-78
2023/10/07 04:16:54;;;;;;;10.85;5.72;;;;;;;7.94;100.00;98276.97;5072789;28;20550;-78
2023/10/07 04:21:50;;;;;;;12.05;6.50;;;;;;;7.98;100.00;98291.91;5071452;28;20036;-77
2023/10/07 04:24:20;;;;;;;29.20;7.43;;;;;;;7.98;100.00;98297.25;5071278;28;20037;-78
2023/10/07 04:27:02;;;;;;;20.33;6.07;;;;;;;7.93;100.00;98291.25;5072109;28;20035;-79
2023/10/07 04:29:28;;;;;;;19.55;6.85;;;;;;;7.80;100.00;98287.31;5071387;28;20472;-77
2023/10/07 04:31:54;;;;;;;14.25;7.20;;;;;;;7.82;100.00;98298.78;5072488;28;20111;-77
2023/10/07 04:34:24;;;;;;;16.52;6.85;;;;;;;7.80;100.00;98302.44;5070981;28;20163;-77
2023/10/07 04:39:31;;;;;;;21.50;7.45;;;;;;;7.76;100.00;98295.47;5070908;28;20025;-77
2023/10/07 04:42:03;;;;;;;18.50;6.68;;;;;;;7.78;100.00;98291.84;5070948;28;20035;-78
2023/10/07 04:52:28;;;;;;;12.80;6.25;;;;;;;7.73;100.00;98296.47;5066876;28;20040;-72
2023/10/07 04:54:56;;;;;;;13.13;5.95;;;;;;;7.71;100.00;98292.13;5068821;28;20036;-72
2023/10/07 04:58:12;;;;;;;14.80;6.45;;;;;;;7.74;100.00;98292.00;5067414;28;20089;-72
2023/10/07 05:00:09;;;;;;;12.43;6.57;;;;;;;7.99;100.00;98303.44;5060045;28;20048;-72
2023/10/07 05:02:35;;;;;;;18.88;8.27;;;;;;;8.08;100.00;98303.97;5067207;28;20054;-71
2023/10/07 05:05:10;;;;;;;24.45;9.75;;;;;;;8.29;100.00;98312.03;5067537;28;20345;-72
2023/10/07 05:07:38;;;;;;;30.25;10.40;;;;;;;9.02;100.00;98318.69;5067323;28;20094;-72
2023/10/07 05:10:08;;;;;;;31.58;14.88;;;;;;;9.87;100.00;98304.13;5068741;28;20131;-71
2023/10/07 05:12:34;;;;;;;95.57;34.80;;;;;;;10.80;100.00;98306.66;5068197;28;20094;-72
2023/10/07 05:15:05;;;;;;;110.97;41.45;;;;;;;11.71;100.00;98290.28;5068356;28;20028;-73
2023/10/07 05:17:36;;;;;;;146.75;54.22;;;;;;;12.46;100.00;98299.41;5051337;28;20067;-71
2023/10/07 05:20:26;;;;;;;87.93;38.15;;;;;;;12.99;100.00;98292.72;5063550;28;20036;-72
2023/10/07 05:22:48;;;;;;;33.08;13.98;;;;;;;13.45;100.00;98270.19;5067189;28;20028;-78
2023/10/07 05:25:14;;;;;;;19.00;7.82;;;;;;;13.76;100.00;98276.34;5050669;28;20059;-72
2023/10/07 05:27:41;;;;;;;19.88;8.35;;;;;;;13.94;100.00;98267.09;5066740;28;20556;-72
2023/10/07 05:30:12;;;;;;;29.95;9.32;;;;;;;14.02;100.00;98278.25;5068529;28;20024;-81
2023/10/07 05:32:39;;;;;;;17.70;7.00;;;;;;;14.49;100.00;98273.34;5067986;28;20105;-82
2023/10/07 05:35:05;;;;;;;19.90;7.22;;;;;;;14.67;100.00;98275.81;5067037;28;20028;-71
2023/10/07 05:37:31;;;;;;;18.25;6.88;;;;;;;15.46;100.00;98282.84;5067984;28;20035;-71
2023/10/07 05:39:56;;;;;;;24.38;7.65;;;;;;;16.43;100.00;98269.56;5066601;28;20423;-72
2023/10/07 05:42:22;;;;;;;23.30;6.80;;;;;;;16.86;100.00;98267.28;5068147;28;20036;-72
2023/10/07 05:44:48;;;;;;;28.17;9.07;;;;;;;17.13;98.11;98254.34;5066611;28;20116;-72
2023/10/07 05:47:14;;;;;;;27.58;8.98;;;;;;;17.35;97.21;98257.09;5067126;28;20047;-73
2023/10/07 05:49:41;;;;;;;40.30;8.23;;;;;;;17.90;92.05;98256.34;5067993;28;20026;-73
2023/10/07 05:52:06;;;;;;;19.85;7.50;;;;;;;18.04;92.51;98257.94;5066547;28;20131;-72
2023/10/07 05:54:33;;;;;;;91.53;37.75;;;;;;;19.04;86.99;98255.03;5066511;28;20119;-71
2023/10/07 05:56:59;;;;;;;167.10;66.88;;;;;;;19.72;78.47;98241.78;5081966;28;20533;-73
2023/10/07 05:59:25;;;;;;;149.45;63.72;;;;;;;20.02;77.50;98239.09;5066358;28;20029;-73
2023/10/07 06:01:50;;;;;;;67.57;30.30;;;;;;;19.88;76.56;98247.59;5066367;28;20032;-74
2023/10/07 06:04:17;;;;;;;70.75;31.60;;;;;;;20.44;71.36;98239.84;5066608;28;20172;-73
2023/10/07 06:06:43;;;;;;;48.75;17.75;;;;;;;20.52;70.07;98236.41;5066131;28;20028;-73
2023/10/07 06:09:13;;;;;;;16.75;8.65;;;;;;;20.92;65.95;98229.00;5065949;28;20113;-73
2023/10/07 06:11:40;;;;;;;18.98;8.07;;;;;;;21.62;62.25;98227.84;5067610;28;20043;-75
2023/10/07 06:14:06;;;;;;;21.42;8.95;;;;;;;22.05;59.07;98230.03;5066270;28;20035;-73
2023/10/07 06:16:32;;;;;;;24.67;11.25;;;;;;;21.99;59.30;98228.78;5066233;28;20028;-73
2023/10/07 06:18:58;;;;;;;31.23;14.50;;;;;;;21.93;58.61;98234.78;5065783;28;20044;-73
2023/10/07 06:21:29;;;;;;;26.58;14.63;;;;;;;21.50;61.01;98246.19;5066367;28;20052;-74
2023/10/07 06:24:06;;;;;;;34.08;16.23;;;;;;;21.21;63.16;98247.25;5066061;28;20036;-72
2023/10/07 06:26:32;;;;;;;23.40;10.75;;;;;;;21.52;62.16;98248.78;5066571;28;20039;-74
2023/10/07 06:29:05;;;;;;;37.42;12.55;;;;;;;21.58;62.40;98253.66;5066383;28;20024;-73
2023/10/07 06:31:31;;;;;;;18.67;7.10;;;;;;;21.18;64.30;98255.69;5050562;28;20025;-73
2023/10/07 06:34:00;;;;;;;25.27;8.77;;;;;;;21.48;63.73;98252.78;5066018;28;20563;-73
2023/10/07 06:36:32;;;;;;;15.43;8.00;;;;;;;22.14;59.59;98238.16;5082727;28;20032;-75
2023/10/07 06:39:01;;;;;;;24.92;7.95;;;;;;;22.48;59.24;98248.47;5067117;28;20458;-72
2023/10/07 06:41:34;;;;;;;13.57;6.03;;;;;;;23.07;55.32;98229.69;5066079;28;20054;-74
2023/10/07 06:44:09;;;;;;;17.42;6.28;;;;;;;22.90;54.57;98227.81;5065935;28;20032;-73
2023/10/07 06:46:40;;;;;;;27.10;7.80;;;;;;;23.15;54.15;98235.25;5066585;28;20090;-72
2023/10/07 06:49:19;;;;;;;22.15;8.85;;;;;;;23.32;54.07;98227.19;5065953;28;20056;-73
2023/10/07 06:51:50;;;;;;;19.58;9.35;;;;;;;23.12;54.27;98230.09;5066079;28;20469;-72
2023/10/07 06:54:16;;;;;;;24.80;11.70;;;;;;;23.67;52.38;98224.41;5066083;28;20033;-73
2023/10/07 06:56:41;;;;;;;27.73;11.38;;;;;;;23.38;53.38;98224.66;5067012;28;20415;-73
2023/10/07 06:59:07;;;;;;;22.58;9.13;;;;;;;23.34;53.14;98220.56;5048940;28;20028;-73
2023/10/07 07:04:14;;;;;;;20.55;8.38;;;;;;;24.18;51.44;98227.13;5065274;28;20127;-73
2023/10/07 07:06:44;;;;;;;16.70;6.32;;;;;;;23.39;52.03;98220.06;5049689;28;20067;-72
2023/10/07 07:12:05;;;;;;;13.18;5.93;;;;;;;23.77;52.11;98216.13;5094682;28;20109;-72
2023/10/07 07:14:31;;;;;;;27.85;8.65;;;;;;;24.22;50.33;98225.78;5065340;28;20557;-72
2023/10/07 07:17:28;;;;;;;17.95;7.25;;;;;;;25.04;48.54;98214.09;5065571;28;20032;-73
2023/10/07 07:19:44;;;;;;;13.82;7.35;;;;;;;25.03;48.12;98214.28;5093551;28;20435;-73
2023/10/07 07:22:11;;;;;;;15.18;6.90;;;;;;;24.58;48.93;98214.66;5067146;28;20029;-72
2023/10/07 07:24:37;;;;;;;9.63;5.93;;;;;;;24.49;48.91;98221.09;5069175;28;20487;-72
2023/10/07 07:27:03;;;;;;;14.95;5.10;;;;;;;24.54;49.38;98221.50;5050570;28;20060;-71
2023/10/07 07:29:30;;;;;;;13.65;5.47;;;;;;;23.88;50.11;98213.97;5048981;28;20123;-72
2023/10/07 07:31:55;;;;;;;10.77;4.78;;;;;;;23.49;53.38;98212.69;5048961;28;20056;-72
2023/10/07 07:34:27;;;;;;;7.30;4.88;;;;;;;24.50;50.43;98206.41;5050371;28;20068;-71
2023/10/07 07:37:06;;;;;;;13.25;4.32;;;;;;;24.60;50.17;98204.41;5065651;28;20062;-71
2023/10/07 07:39:31;;;;;;;9.25;4.65;;;;;;;24.71;49.14;98202.19;5083757;28;20051;-72
2023/10/07 07:42:15;;;;;;;13.32;5.65;;;;;;;25.05;48.13;98196.66;5068846;28;20028;-73
2023/10/07 07:47:38;;;;;;;8.18;4.40;;;;;;;25.35;46.81;98195.09;5053326;28;20518;-72
2023/10/07 07:50:07;;;;;;;13.13;4.75;;;;;;;25.30;47.06;98197.50;5070030;28;20021;-72
2023/10/07 07:52:32;;;;;;;10.15;4.40;;;;;;;25.74;46.89;98192.53;5069788;28;20034;-71
2023/10/07 07:54:58;;;;;;;9.93;4.50;;;;;;;26.74;44.58;98184.44;5068490;28;20036;-71
2023/10/07 07:57:24;;;;;;;14.55;4.43;;;;;;;26.20;44.75;98180.78;5068586;28;20396;-72
2023/10/07 07:59:50;;;;;;;6.85;3.88;;;;;;;25.57;45.47;98183.47;5068488;28;20025;-72
2023/10/07 08:02:16;;;;;;;12.25;3.90;;;;;;;26.35;44.38;98183.63;5068358;28;20025;-72
2023/10/07 08:05:02;;;;;;;13.18;4.38;;;;;;;27.38;42.70;98169.38;5068358;28;20105;-74
2023/10/07 08:07:29;;;;;;;13.23;3.67;;;;;;;28.29;41.13;98165.56;5068020;28;20486;-72
2023/10/07 08:09:58;;;;;;;9.98;4.10;;;;;;;28.67;40.03;98160.78;5068387;28;20127;-73
2023/10/07 08:12:30;;;;;;;21.70;4.95;;;;;;;29.07;39.73;98162.06;5068206;28;20031;-72
2023/10/07 08:14:58;;;;;;;;;;;;;;;29.36;38.78;98160.06;5084893;28;20033;-71
2023/10/07 08:17:27;;;;;;;9.02;4.70;;;;;;;29.01;39.27;98166.44;5051575;28;19944;-71
2023/10/07 08:19:53;;;;;;;9.68;5.18;;;;;;;28.21;39.50;98161.00;5084528;28;20090;-72
2023/10/07 08:22:20;;;;;;;11.48;3.72;;;;;;;28.49;39.32;98159.25;5068019;28;20115;-74
2023/10/07 08:24:46;;;;;;;9.27;3.80;;;;;;;28.49;39.43;98161.16;5068173;28;20032;-72
2023/10/07 08:30:37;;;;;;;12.32;3.88;;;;;;;28.85;38.66;98144.69;5055115;28;20063;-72
2023/10/07 08:33:05;;;;;;;11.40;3.88;;;;;;;28.54;39.19;98155.94;5052296;28;20139;-72
2023/10/07 08:35:34;;;;;;;7.30;3.85;;;;;;;28.66;39.32;98145.31;5059943;28;20044;-71
2023/10/07 08:38:19;;;;;;;9.07;4.18;;;;;;;30.06;36.98;98137.03;5084408;28;20028;-71
2023/10/07 08:41:04;;;;;;;26.83;4.72;;;;;;;31.11;35.85;98134.72;5068795;28;20376;-72
2023/10/07 08:43:37;;;;;;;13.52;4.40;;;;;;;31.69;34.94;98133.91;5068255;28;20062;-71
2023/10/07 08:46:08;;;;;;;11.13;4.10;;;;;;;32.34;33.83;98126.56;5068096;28;20524;-71
2023/10/07 08:48:38;;;;;;;10.40;4.43;;;;;;;32.30;33.30;98119.78;5067773;28;20024;-72
2023/10/07 08:51:11;;;;;;;8.00;4.40;;;;;;;31.90;33.42;98112.63;5068072;28;20040;-72
2023/10/07 08:53:37;;;;;;;7.40;3.67;;;;;;;32.08;33.41;98115.59;5070229;28;20024;-71
2023/10/07 08:56:14;;;;;;;14.82;4.00;;;;;;;32.46;33.52;98108.19;5070545;28;20024;-71
2023/10/07 08:58:41;;;;;;;13.43;4.00;;;;;;;33.17;32.44;98095.03;5087138;28;20031;-72
2023/10/07 09:01:16;;;;;;;11.13;3.75;;;;;;;33.13;32.34;98098.50;5070594;28;20034;-71
2023/10/07 09:03:47;;;;;;;8.90;4.35;;;;;;;32.46;33.34;98099.03;5085921;28;20451;-72
2023/10/07 09:06:13;;;;;;;11.07;4.85;;;;;;;33.05;32.55;98091.25;5070427;28;20489;-72
2023/10/07 09:08:38;;;;;;;10.65;4.07;;;;;;;33.87;31.54;98103.22;5069821;28;20028;-72
2023/10/07 09:11:07;;;;;;;16.05;4.63;;;;;;;33.98;31.61;98092.19;5071604;28;20047;-72
2023/10/07 09:13:34;;;;;;;10.88;4.35;;;;;;;33.87;31.11;98086.53;5069756;28;20223;-72
2023/10/07 09:15:59;;;;;;;8.57;4.20;;;;;;;33.62;31.59;98086.59;5070308;28;20487;-73
2023/10/07 09:18:31;;;;;;;10.05;4.20;;;;;;;33.55;31.40;98081.06;5070691;28;20131;-72
2023/10/07 09:20:57;;;;;;;;;;;;;;;33.33;31.04;98082.53;5070426;28;20373;-72
2023/10/07 09:24:13;;;;;;;9.85;4.55;;;;;;;34.46;30.32;98074.75;5086496;28;19918;-72
2023/10/07 09:26:34;;;;;;;13.52;4.53;;;;;;;34.55;30.52;98067.78;5070428;28;20098;-73
2023/10/07 09:29:21;;;;;;;12.98;5.00;;;;;;;34.93;30.40;98078.59;5069725;28;20022;-72
2023/10/07 09:31:56;;;;;;;8.57;4.10;;;;;;;34.39;29.69;98066.50;5069636;28;20399;-72
2023/10/07 09:34:41;;;;;;;7.75;3.58;;;;;;;34.54;28.99;98060.53;5069624;28;20021;-71
2023/10/07 09:37:13;;;;;;;6.38;4.03;;;;;;;34.36;29.09;98053.09;5064689;28;20024;-72
2023/10/07 09:39:53;;;;;;;;;;;;;;;35.17;28.33;98060.91;5069690;28;20036;-71
2023/10/07 09:42:37;;;;;;;6.75;3.78;;;;;;;35.58;28.07;98058.09;5069652;28;19916;-71
2023/10/07 09:45:17;;;;;;;10.10;4.00;;;;;;;35.78;28.06;98050.22;5062609;28;20028;-72
2023/10/07 09:47:47;;;;;;;7.10;3.55;;;;;;;34.82;28.22;98035.78;5069020;28;20579;-73
2023/10/07 09:50:28;;;;;;;8.20;4.25;;;;;;;35.46;28.18;98040.53;5069906;28;20020;-72
2023/10/07 09:53:02;;;;;;;9.23;3.63;;;;;;;35.59;27.89;98036.69;5070692;28;20133;-72
2023/10/07 09:55:31;;;;;;;10.00;4.03;;;;;;;35.31;27.73;98041.00;5069327;28;20116;-73
2023/10/07 09:58:41;;;;;;;7.78;3.22;;;;;;;35.86;27.26;98029.53;5069195;28;20099;-71
2023/10/07 10:01:37;;;;;;;8.43;4.20;;;;;;;35.60;27.32;98030.84;5069225;28;20437;-71
2023/10/07 10:04:39;;;;;;;4.80;3.10;;;;;;;34.60;27.70;98018.78;5069194;28;20060;-71
2023/10/07 10:07:28;;;;;;;8.35;3.75;;;;;;;35.79;26.96;98012.06;5085844;28;20033;-73
2023/10/07 10:10:07;;;;;;;7.30;3.75;;;;;;;36.43;26.71;98002.59;5085529;28;20024;-72
2023/10/07 10:12:53;;;;;;;8.55;4.03;;;;;;;36.32;26.41;97995.16;5053362;28;20033;-72
2023/10/07 10:17:55;;;;;;;6.40;3.63;;;;;;;36.28;26.22;97982.78;5069025;28;20056;-72
2023/10/07 10:20:27;;;;;;;3.72;2.60;;;;;;;36.53;26.06;97982.47;5068996;28;20094;-72
2023/10/07 10:22:57;;;;;;;5.07;3.33;;;;;;;35.36;26.91;97976.25;5052513;28;20107;-72
2023/10/07 10:25:36;;;;;;;6.05;3.42;;;;;;;36.40;25.93;97967.72;5069144;28;20107;-72
2023/10/07 10:28:07;;;;;;;5.70;3.28;;;;;;;36.72;25.41;97962.50;5069148;28;20024;-71
2023/10/07 10:30:33;;;;;;;;;;;;;;;37.19;25.04;97957.47;5086220;28;20028;-72
2023/10/07 10:33:08;;;;;;;18.75;4.22;;;;;;;37.47;25.01;97950.97;5068791;28;19908;-72
2023/10/07 10:35:42;;;;;;;7.38;3.58;;;;;;;37.52;24.47;97941.78;5068768;28;20040;-72
2023/10/07 10:38:13;;;;;;;9.95;3.78;;;;;;;37.16;24.68;97937.59;5068795;28;20021;-73
2023/10/07 10:40:39;;;;;;;5.15;3.30;;;;;;;35.43;25.15;97932.44;5069903;28;20466;-72
2023/10/07 10:43:10;;;;;;;7.15;3.08;;;;;;;35.17;25.58;97924.56;5052034;28;20111;-72
2023/10/07 10:45:41;;;;;;;6.78;3.60;;;;;;;36.43;24.92;97914.25;5052479;28;20060;-72
2023/10/07 10:48:08;;;;;;;6.88;3.20;;;;;;;37.08;24.32;97921.25;5069905;28;20029;-71
2023/10/07 10:50:34;;;;;;;6.30;3.50;;;;;;;36.15;24.84;97916.19;5068892;28;20051;-71
2023/10/07 10:53:00;;;;;;;7.65;2.50;;;;;;;34.06;26.34;97899.34;5069735;28;20028;-71
2023/10/07 10:55:34;;;;;;;5.72;2.85;;;;;;;34.42;25.94;97913.19;5069525;28;20040;-72
2023/10/07 10:58:00;;;;;;;6.68;2.92;;;;;;;35.33;25.21;97907.16;5073782;28;20090;-71
2023/10/07 11:00:25;;;;;;;5.65;3.10;;;;;;;36.80;24.04;97886.75;5055738;28;20438;-72
2023/10/07 11:02:55;;;;;;;5.55;2.70;;;;;;;37.34;23.71;97898.22;5072457;28;20464;-72
2023/10/07 11:05:21;;;;;;;7.88;3.28;;;;;;;37.84;23.17;97884.97;5072739;28;20483;-72
2023/10/07 11:07:50;;;;;;;6.10;2.88;;;;;;;38.40;22.64;97874.47;5072687;28;20377;-71
2023/10/07 11:10:24;;;;;;;6.38;3.10;;;;;;;39.78;21.57;97876.09;5072605;28;20081;-72
2023/10/07 11:12:56;;;;;;;4.10;2.60;;;;;;;38.63;20.75;97851.75;5072405;28;20082;-72
2023/10/07 11:15:27;;;;;;;6.97;3.05;;;;;;;38.70;20.91;97859.94;5072306;28;20093;-71
2023/10/07 11:18:13;;;;;;;5.72;2.70;;;;;;;39.02;20.24;97853.19;5072054;28;20040;-72
2023/10/07 11:20:43;;;;;;;8.15;2.65;;;;;;;39.19;21.04;97855.00;5072404;28;20044;-71
2023/10/07 11:23:10;;;;;;;3.78;2.55;;;;;;;39.23;20.70;97844.94;5072071;28;20024;-71
2023/10/07 11:25:36;;;;;;;4.78;3.08;;;;;;;39.13;21.13;97851.31;5088979;28;20484;-71
2023/10/07 11:28:09;;;;;;;5.60;3.13;;;;;;;37.10;22.32;97841.75;5071922;28;20024;-70
2023/10/07 11:30:46;;;;;;;5.68;2.85;;;;;;;36.25;22.96;97835.56;5072162;28;20465;-71
2023/10/07 11:33:16;;;;;;;5.68;2.65;;;;;;;36.97;22.89;97830.94;5072031;28;20025;-71
2023/10/07 11:35:42;;;;;;;3.67;2.45;;;;;;;38.37;21.61;97822.72;5072055;28;20036;-71
2023/10/07 11:38:11;;;;;;;5.03;3.22;;;;;;;39.37;20.62;97812.56;5071534;28;20023;-71
2023/10/07 11:40:40;;;;;;;8.73;2.78;;;;;;;38.87;21.00;97824.25;5071853;28;20420;-72
2023/10/07 11:43:08;;;;;;;6.30;3.08;;;;;;;37.98;21.54;97819.22;5071741;28;20028;-71
2023/10/07 11:45:40;;;;;;;4.28;2.50;;;;;;;35.73;22.51;97804.19;5072108;28;20453;-71
2023/10/07 11:48:08;;;;;;;6.93;2.83;;;;;;;37.03;22.35;97823.53;5071559;28;20029;-72
2023/10/07 11:50:39;;;;;;;2.55;2.00;;;;;;;37.82;19.00;97782.94;5071567;28;20353;-71
2023/10/07 11:53:08;;;;;;;;;;;;;;;38.58;18.64;97792.94;5072101;28;20511;-72
2023/10/07 11:55:34;;;;;;;4.78;2.22;;;;;;;38.72;18.46;97783.00;5071698;28;20391;-72
2023/10/07 11:58:00;;;;;;;5.22;2.33;;;;;;;38.56;18.99;97771.94;5054774;28;20522;-72
2023/10/07 12:00:34;;;;;;;5.00;2.70;;;;;;;38.45;18.70;97768.25;5054974;28;20124;-72
2023/10/07 12:03:06;;;;;;;3.20;2.20;;;;;;;38.68;17.90;97764.19;5071735;28;20028;-73
2023/10/07 12:05:32;;;;;;;5.57;2.40;;;;;;;38.59;18.44;97772.25;5035434;28;20028;-72
2023/10/07 12:08:02;;;;;;;10.98;2.30;;;;;;;39.01;18.19;97775.94;5067131;28;20415;-72
2023/10/07 12:10:29;;;;;;;3.42;2.47;;;;;;;39.31;18.01;97764.09;5067541;28;20024;-73
2023/10/07 12:12:54;;;;;;;6.90;2.20;;;;;;;38.94;18.13;97766.09;5034784;28;20028;-72
2023/10/07 12:15:23;;;;;;;4.50;2.20;;;;;;;38.67;18.08;97774.53;5069037;28;20071;-72
2023/10/07 12:17:49;;;;;;;7.28;2.38;;;;;;;38.84;18.04;97757.63;5049694;28;20055;-72
2023/10/07 12:20:20;;;;;;;4.38;2.20;;;;;;;38.54;18.21;97757.41;5071004;28;20040;-71
2023/10/07 12:22:51;;;;;;;5.43;2.70;;;;;;;38.15;18.85;97757.59;5055053;28;20027;-72
2023/10/07 12:25:17;;;;;;;;;;;;;;;38.65;18.55;97765.59;5054940;28;20028;-72
2023/10/07 12:27:49;;;;;;;8.95;2.67;;;;;;;38.70;18.08;97746.03;5087839;28;20425;-73
2023/10/07 12:30:21;;;;;;;4.25;2.38;;;;;;;38.18;18.92;97745.06;5101853;28;20172;-73
2023/10/07 12:32:55;;;;;;;7.13;2.47;;;;;;;37.67;19.23;97754.84;5035129;28;20035;-72
2023/10/07 12:35:24;;;;;;;3.80;2.47;;;;;;;38.14;18.86;97753.13;5061526;28;20467;-72
2023/10/07 12:37:52;;;;;;;6.53;2.50;;;;;;;37.26;18.87;97743.19;5039657;28;20040;-72